• Join FlightAware (Why Join?)
  • Login
  • US Flag 
01:28PM EDT


 

Airport Tracker/Info


-or-


 

Live Flight TrackerFlight Track Log ✈ EJA929 ✈ 16-May-2013 ✈ KMSP - KSEA

Flight Track Log - Related Links

Times and Time Zones

All times are in EDT time to prevent confusion due to time zone crossing. See the EJA929 flight status page for this flight to view local times or setup timezone preferences in your user account.

Time Position Orientation Groundspeed Altitude Reporting Facility
EDT Latitude Longitude Course Direction KTS MPH feet Rate Location/Type
12:42PM 44.8617 -93.1511 107° East 195 224 3,700  Level Minneapolis Center
12:43PM 44.8431 -93.0667 107° East 224 258 6,900 1,560 Climbing Minneapolis Center
12:44PM 44.8519 -92.9797 82° East 240 276 7,000  Climbing Minneapolis Center
12:45PM 44.9069 -92.9553 17° North 225 259 7,000 1,020 Level Minneapolis Center
12:46PM 44.9775 -92.9528 North 254 292 9,200 2,700 Climbing Minneapolis Center
12:47PM 45.0467 -92.9572 357° North 252 290 12,600 2,640 Climbing Minneapolis Center
12:48PM 45.0594 -93.0806 278° West 294 338 14,700 1,740 Climbing Minneapolis Center
12:49PM 45.0539 -93.2047 266° West 320 368 16,300 1,500 Climbing Minneapolis Center
12:50PM 45.0483 -93.3406 267° West 350 403 17,900 1,680 Climbing Minneapolis Center
12:51PM 45.0408 -93.4789 266° West 356 410 19,800 1,860 Climbing Minneapolis Center
12:52PM 45.0344 -93.6222 266° West 368 423 21,800 2,160 Climbing Minneapolis Center
12:53PM 45.0261 -93.7972 266° West 373 429 24,300 1,980 Climbing Minneapolis Center
12:54PM 45.0533 -93.9408 285° West 382 440 26,000 1,680 Climbing Minneapolis Center
12:55PM 45.0856 -94.0869 287° West 389 448 27,800 1,560 Climbing Minneapolis Center
12:56PM 45.1183 -94.2381 287° West 399 459 29,300 1,560 Climbing Minneapolis Center
12:57PM 45.1517 -94.3953 287° West 414 476 31,100 2,340 Climbing Minneapolis Center
12:58PM 45.1931 -94.5819 288° West 416 479 34,200 2,700 Climbing Minneapolis Center
12:59PM 45.2239 -94.7250 287° West 405 466 36,800 2,220 Climbing Minneapolis Center
01:00PM 45.2536 -94.8700 286° West 392 451 38,800 1,440 Climbing Minneapolis Center
01:01PM 45.2839 -95.0161 286° West 389 448 39,800 1,200 Climbing Minneapolis Center
01:02PM 45.3208 -95.1992 286° West 401 461 41,400 1,200 Climbing Minneapolis Center
01:04PM 45.3522 -95.3494 287° West 401 461 42,400 780 Climbing Minneapolis Center
01:05PM 45.3831 -95.4986 286° West 398 458 43,100 300 Climbing Minneapolis Center
01:06PM 45.4139 -95.6544 286° West 408 470 43,100  Level Minneapolis Center
01:07PM 45.4464 -95.8156 286° West 422 486 43,100  Level Minneapolis Center
01:08PM 45.4864 -96.0142 286° West 432 497 43,100  Level Minneapolis Center
01:09PM 45.5183 -96.1789 286° West 435 501 43,100  Level Minneapolis Center
01:10PM 45.5506 -96.3464 285° West 438 504 43,100  Level Minneapolis Center
01:11PM 45.5828 -96.5122 286° West 437 503 43,100  Level Minneapolis Center
01:12PM 45.6156 -96.6769 286° West 436 502 43,100  Level Minneapolis Center
01:13PM 45.6536 -96.8761 285° West 435 501 43,100  Level Minneapolis Center
01:14PM 45.6850 -97.0414 285° West 435 501 43,100  Level Minneapolis Center
01:15PM 45.7158 -97.2058 285° West 431 496 43,100  Level Minneapolis Center
01:16PM 45.7461 -97.3714 285° West 432 497 43,100  Level Minneapolis Center
01:17PM 45.7769 -97.5383 285° West 435 501 43,100  Level Minneapolis Center
01:18PM 45.8128 -97.7392 284° West 436 502 43,100  Level Minneapolis Center
01:19PM 45.8422 -97.9061 284° West 434 499 43,100 -60 Level Minneapolis Center
01:20PM 45.8706 -98.0578 285° West 437 503 43,000  Descending Minneapolis Center
01:21PM 45.9044 -98.2428 285° West 442 509 43,100  Climbing Minneapolis Center
01:22PM 45.9331 -98.4111 284° West 438 504 43,100  Level Minneapolis Center
01:23PM 45.9622 -98.5775 284° West 435 501 43,100  Level Minneapolis Center
01:24PM 45.9964 -98.7761 284° West 430 495 43,100  Level Minneapolis Center
01:25PM 46.0244 -98.9442 284° West 432 497 43,100  Level Minneapolis Center
01:26PM 46.0519 -99.1097 284° West 430 495 43,100  Level Minneapolis Center
01:27PM 46.0803 -99.2767 284° West 431 496 43,100  Level Minneapolis Center
01:28PM 46.1069 -99.4439 283° West 430 495 43,100  Level Minneapolis Center
01:29PM 46.1392 -99.6450 283° West 431 496 43,100  Level Minneapolis Center
01:30PM 46.1667 -99.8122 283° West 431 496 43,100  Level Minneapolis Center
01:31PM 46.1936 -99.9819 283° West 434 499 43,100  Level Minneapolis Center
01:32PM 46.2200 -100.1528 283° West 437 503 43,100  Level Minneapolis Center
01:34PM 46.2469 -100.3225 283° West 436 502 43,100  Level Minneapolis Center
01:35PM 46.2731 -100.4928 283° West 435 501 43,100  Level Minneapolis Center
01:36PM 46.3044 -100.6964 283° West 434 499 43,100  Level Minneapolis Center
01:37PM 46.3303 -100.8694 282° West 438 504 43,100  Level Minneapolis Center
01:38PM 46.3556 -101.0419 282° West 440 506 43,100 -60 Level Minneapolis Center
01:39PM 46.3817 -101.2142 282° West 439 505 43,000 -60 Descending Minneapolis Center
01:40PM 46.4056 -101.3928 281° West 448 516 43,000  Level Minneapolis Center
01:41PM 46.4303 -101.5686 282° West 448 516 43,100  Climbing Minneapolis Center
01:42PM 46.4597 -101.7522 283° West 443 510 43,000 -60 Descending Minneapolis Center
01:43PM 46.4864 -101.9267 283° West 443 510 43,000  Level Minneapolis Center
01:44PM 46.5108 -102.1042 281° West 447 514 43,000  Level Minneapolis Center
01:45PM 46.5394 -102.3178 281° West 450 518 43,000  Level Minneapolis Center
01:46PM 46.5650 -102.4933 282° West 447 514 43,000  Level Minneapolis Center
01:47PM 46.5886 -102.6714 281° West 448 516 43,000  Level Minneapolis Center
01:48PM 46.6117 -102.8497 281° West 448 516 43,000  Level Minneapolis Center
01:49PM 46.6344 -103.0303 280° West 452 520 43,000  Level Minneapolis Center
01:50PM 46.6464 -103.1381 279° West 450 518 43,000  Level Salt Lake Center
01:51PM 46.6689 -103.3169 280° West 450 518 43,000  Level Salt Lake Center
01:52PM 46.6917 -103.4942 281° West 448 516 43,000  Level Salt Lake Center
01:53PM 46.7136 -103.6733 280° West 448 516 43,000  Level Salt Lake Center
01:54PM 46.7356 -103.8533 280° West 448 516 43,000  Level Salt Lake Center
01:55PM 46.7572 -104.0339 280° West 451 519 43,000  Level Salt Lake Center
01:56PM 46.7819 -104.2494 280° West 450 518 43,000  Level Salt Lake Center
01:57PM 46.8036 -104.4303 280° West 452 520 43,000  Level Salt Lake Center
01:58PM 46.8228 -104.6083 279° West 448 516 43,000  Level Salt Lake Center
01:59PM 46.8450 -104.7889 280° West 449 517 43,000  Level Salt Lake Center
02:00PM 46.8636 -104.9686 279° West 448 516 43,000  Level Salt Lake Center
02:01PM 46.8839 -105.1489 279° West 449 517 43,000  Level Salt Lake Center
02:02PM 46.9050 -105.3317 280° West 453 521 43,000  Level Salt Lake Center
02:03PM 46.9294 -105.5506 279° West 454 522 43,000  Level Salt Lake Center
02:04PM 46.9494 -105.7342 279° West 456 525 43,000  Level Salt Lake Center
02:05PM 46.9683 -105.9161 279° West 455 524 43,000  Level Salt Lake Center
02:06PM 46.9867 -106.0981 278° West 453 521 43,000  Level Salt Lake Center
02:07PM 47.0056 -106.2828 279° West 457 526 43,000  Level Salt Lake Center
02:09PM 47.0291 -106.5211 278° West  Level FlightAware Approximate
02:09PM 47.0431 -106.6617 278° West 451 519 43,100  Level Salt Lake Center
02:10PM 47.0625 -106.8642 278° West 450 518 43,000 -60 Descending Salt Lake Center
02:11PM 47.0781 -107.0381 278° West 451 519 43,000  Level Salt Lake Center
02:12PM 47.0969 -107.2403 278° West 449 517 43,100  Climbing Salt Lake Center
02:13PM 47.1131 -107.4147 278° West 451 519 43,100  Level Salt Lake Center
02:14PM 47.1303 -107.6144 277° West 445 512 43,100  Level Salt Lake Center
02:15PM 47.1453 -107.7906 277° West 450 518 43,100  Level Salt Lake Center
02:16PM 47.1628 -107.9928 277° West 448 516 43,100  Level Salt Lake Center
02:17PM 47.1769 -108.1669 277° West 449 517 43,100  Level Salt Lake Center
02:18PM 47.1936 -108.3717 277° West 451 519 43,100  Level Salt Lake Center
02:19PM 47.2075 -108.5444 277° West 448 516 43,100 -60 Level Salt Lake Center
02:20PM 47.2208 -108.7203 276° West 450 518 43,000 -60 Descending Salt Lake Center
02:22PM 47.2342 -108.8931 277° West 450 518 43,000  Level Salt Lake Center
02:23PM 47.2506 -109.1106 276° West 448 516 43,000  Level Salt Lake Center
02:24PM 47.2642 -109.2925 276° West 447 514 43,000  Level Salt Lake Center
02:25PM 47.2767 -109.4747 276° West 448 516 43,000  Level Salt Lake Center
02:26PM 47.2894 -109.6553 276° West 446 513 43,000  Level Salt Lake Center
02:27PM 47.3022 -109.8361 276° West 445 512 43,000  Level Salt Lake Center
02:28PM 47.3136 -110.0172 275° West 446 513 43,000  Level Salt Lake Center
02:29PM 47.3258 -110.1972 276° West 443 510 43,000  Level Salt Lake Center
02:30PM 47.3400 -110.4128 276° West 442 509 43,000  Level Salt Lake Center
02:31PM 47.3508 -110.5931 275° West 440 506 43,000  Level Salt Lake Center
02:32PM 47.3619 -110.7731 275° West 441 507 43,000  Level Salt Lake Center
02:33PM 47.3722 -110.9533 275° West 441 507 43,000  Level Salt Lake Center
02:34PM 47.3825 -111.1336 275° West 439 505 43,000  Level Salt Lake Center
02:35PM 47.3925 -111.3153 275° West 439 505 43,000  Level Salt Lake Center
02:36PM 47.4025 -111.4989 275° West 443 510 43,000  Level Salt Lake Center
02:37PM 47.4111 -111.6806 274° West 441 507 43,000  Level Salt Lake Center
02:38PM 47.4214 -111.8617 275° West 442 509 43,000  Level Salt Lake Center
02:39PM 47.4317 -112.0789 274° West 441 507 43,000  Level Salt Lake Center
02:40PM 47.4406 -112.2614 274° West 444 511 43,000  Level Salt Lake Center
02:41PM 47.4483 -112.4419 274° West 441 507 43,000  Level Salt Lake Center
02:42PM 47.4558 -112.6244 274° West 445 512 43,000  Level Salt Lake Center
02:43PM 47.4639 -112.8056 274° West 445 512 43,000  Level Salt Lake Center
02:44PM 47.4706 -112.9897 273° West 442 509 43,000  Level Salt Lake Center
02:45PM 47.4792 -113.1725 274° West 446 513 43,000  Level Salt Lake Center
02:46PM 47.4872 -113.3922 273° West 446 513 43,000  Level Salt Lake Center
02:47PM 47.4944 -113.5744 273° West 444 511 43,000  Level Salt Lake Center
02:48PM 47.5000 -113.7575 273° West 445 512 43,000  Level Salt Lake Center
02:49PM 47.5069 -113.9408 273° West 446 513 43,000  Level Salt Lake Center
02:50PM 47.5119 -114.1242 272° West 444 511 43,000  Level Salt Lake Center
02:51PM 47.5178 -114.3075 273° West 444 511 43,000  Level Salt Lake Center
02:52PM 47.5225 -114.4911 272° West 445 512 43,000  Level Salt Lake Center
02:53PM 47.5283 -114.6786 273° West 452 520 43,000  Level Salt Lake Center
02:54PM 47.5328 -114.8683 272° West 459 528 43,000  Level Salt Lake Center
02:55PM 47.5378 -115.0611 272° West 463 533 43,000  Level Seattle Center
02:56PM 47.5411 -115.2533 272° West 466 536 43,000  Level Seattle Center
02:57PM 47.5464 -115.4847 272° West 468 539 43,000  Level Seattle Center
02:59PM 47.5500 -115.6764 272° West 468 539 43,000  Level Seattle Center
03:00PM 47.5517 -115.8725 271° West 468 539 43,000  Level Seattle Center
03:01PM 47.5542 -116.0642 271° West 468 539 43,000  Level Seattle Center
03:02PM 47.5569 -116.2569 271° West 469 540 43,000  Level Seattle Center
03:03PM 47.5589 -116.4489 271° West 468 539 43,000  Level Seattle Center
03:04PM 47.5608 -116.6417 271° West 470 541 43,000  Level Seattle Center
03:05PM 47.5622 -116.8342 271° West 469 540 43,000  Level Seattle Center
03:06PM 47.5647 -117.0231 271° West 470 541 43,000  Level Seattle Center
03:07PM 47.5644 -117.2278 270° West 469 540 43,100  Climbing Seattle Center
03:08PM 47.5650 -117.4297 270° West 468 539 43,000 -60 Descending Seattle Center
03:09PM 47.5656 -117.6225 270° West 469 540 43,000  Level Seattle Center
03:10PM 47.5819 -117.8122 277° West 466 536 43,000  Level Seattle Center
03:11PM 47.5997 -118.0033 278° West 469 540 43,000  Level Seattle Center
03:12PM 47.6175 -118.1942 278° West 468 539 43,000  Level Seattle Center
03:13PM 47.6364 -118.3853 278° West 469 540 43,000  Level Seattle Center
03:14PM 47.6531 -118.5767 277° West 471 542 43,000  Level Seattle Center
03:15PM 47.6692 -118.7692 277° West 471 542 43,000  Level Seattle Center
03:16PM 47.6853 -118.9633 277° West 476 548 43,000  Level Seattle Center
03:17PM 47.7061 -119.1944 278° West 474 545 43,000  Level Seattle Center
03:18PM 47.7206 -119.3889 276° West 474 545 43,000  Level Seattle Center
03:19PM 47.7367 -119.5825 277° West 474 545 43,000 -1,020 Level Seattle Center
03:20PM 47.7522 -119.7792 277° West 478 550 41,000 -2,460 Descending Seattle Center
03:21PM 47.7669 -119.9808 276° West 489 563 38,000 -2,940 Descending Seattle Center
03:22PM 47.7819 -120.1728 277° West 474 545 35,100 -2,940 Descending Seattle Center
03:23PM 47.7953 -120.3661 276° West 471 542 32,100 -2,940 Descending Seattle Center
03:24PM 47.8097 -120.5556 277° West 464 534 29,200 -2,940 Descending Seattle Center
03:25PM 47.8231 -120.7547 276° West 481 554 26,200 -3,000 Descending Seattle Center
03:26PM 47.8372 -120.9497 276° West 449 517 23,200 -3,060 Descending Seattle Center
03:27PM 47.8517 -121.1278 277° West 439 505 20,500 -3,000 Descending Seattle Center
03:27PM 47.8581 -121.2369 275° West 438 504 18,800 -2,400 Descending Seattle Center
03:28PM 47.8606 -121.3044 273° West 435 501 17,700 -2,700 Descending Seattle Center
03:28PM 47.8678 -121.4106 276° West 422 486 16,100 -2,400 Descending Seattle Center
03:29PM 47.8722 -121.4644 277° West 387 445 15,300 -1,980 Descending Seattle Center
03:29PM 47.8767 -121.5481 275° West 305 351 14,100 -2,160 Descending Seattle Center
03:31PM 47.8797 -121.6889 272° West 285 328 12,000 -1,380 Descending Seattle Center
03:31PM 47.8642 -121.7314 241° Southwest 296 341 12,000 -720 Level Seattle Center
03:32PM 47.8294 -121.7803 223° Southwest 291 335 11,300 -1,620 Descending Seattle Center
03:32PM 47.8061 -121.8214 230° Southwest 284 327 10,400 -1,920 Descending Seattle Center
03:33PM 47.7883 -121.8797 246° West 278 320 9,400 -1,800 Descending Seattle Center
03:33PM 47.7728 -121.9267 244° Southwest 280 322 8,600 -1,920 Descending Seattle Center
03:34PM 47.7561 -121.9806 245° Southwest 277 319 7,500 -1,920 Descending Seattle Center
03:34PM 47.7406 -122.0286 244° Southwest 274 315 6,700 -1,920 Descending Seattle Center
03:35PM 47.7228 -122.0850 245° Southwest 273 314 5,600 -1,680 Descending Seattle Center
03:35PM 47.7050 -122.1378 243° Southwest 274 315 5,000 -1,080 Descending Seattle Center
03:36PM 47.6903 -122.2119 254° West 273 314 4,300 -1,020 Descending Seattle Center
03:36PM 47.6836 -122.2425 252° West 269 310 4,000 -420 Descending Seattle Center
03:37PM 47.6758 -122.2858 255° West 205 236 4,000  Level Seattle Center
03:37PM 47.6642 -122.3183 242° Southwest 205 236 4,000 -240 Level Seattle Center
03:38PM 47.6192 -122.3172 179° South 189 217 3,700 -660 Descending Seattle Center
03:39PM 47.5836 -122.3169 180° South 178 205 3,000 -1,140 Descending Seattle Center
03:39PM 47.5575 -122.3178 181° South 177 204 2,400 -1,200 Descending Seattle Center
03:40PM 47.5350 -122.3178 180° South 172 198 1,800 -1,020 Descending Seattle Center
03:40PM 47.5108 -122.3175 180° South 168 193 1,400 -840 Descending Seattle Center
03:41PM 47.4908 -122.3192 183° South 146 168 1,000 -720 Descending Seattle Center
03:41PM 47.4728 -122.3183 178° South 141 162 700 -420 Descending Seattle Center
03:42PM 47.4383 -122.3186 180° South 140 161 400 -300 Descending Seattle Center
03:44PM 47.4333 -122.3000 90° East  Level FlightAware Approximate